createdAt,value
2023-02-01T00:03:36.351Z,101681.16
2023-02-01T00:08:39.271Z,101689.94
2023-02-01T00:13:43.255Z,101693.78
2023-02-01T00:18:47.301Z,101695.44
2023-02-01T00:23:49.982Z,101685.44
2023-02-01T00:28:52.648Z,101690.16
2023-02-01T00:33:55.312Z,101671.09
2023-02-01T00:38:58.027Z,101692.75
2023-02-01T00:44:01.408Z,101687.88
2023-02-01T00:49:04.207Z,101673.34
2023-02-01T00:54:06.990Z,101688.94
2023-02-01T00:59:12.973Z,101704.38
2023-02-01T01:04:15.722Z,101705.72
2023-02-01T01:09:18.346Z,101709.75
2023-02-01T01:14:21.009Z,101709.31
2023-02-01T01:19:23.664Z,101718.69
2023-02-01T01:24:26.331Z,101720.25
2023-02-01T01:29:30.515Z,101719.16
2023-02-01T01:34:33.389Z,101726.50
2023-02-01T01:39:36.303Z,101721.38
2023-02-01T01:45:05.159Z,101721.81
2023-02-01T01:50:12.986Z,101736.53
2023-02-01T01:55:16.906Z,101732.28
2023-02-01T02:00:21.303Z,101738.78
2023-02-01T02:05:26.063Z,101751.69
2023-02-01T02:10:49.611Z,101731.19
2023-02-01T02:16:07.667Z,101752.81
2023-02-01T02:21:25.865Z,101772.19
2023-02-01T02:26:46.990Z,101765.94
2023-02-01T02:32:23.862Z,101767.72
2023-02-01T02:37:30.125Z,101771.53
2023-02-01T02:43:03.611Z,101773.06
2023-02-01T02:48:23.288Z,101783.53
2023-02-01T02:53:58.966Z,101782.44
2023-02-01T02:59:21.812Z,101787.13
2023-02-01T03:04:24.921Z,101783.13
2023-02-01T03:09:28.255Z,101788.72
2023-02-01T03:14:32.121Z,101783.56
2023-02-01T03:19:44.907Z,101770.41
2023-02-01T03:24:50.952Z,101782.44
2023-02-01T03:30:00.824Z,101760.13
2023-02-01T03:35:05.945Z,101773.06
2023-02-01T03:40:12.988Z,101769.72
2023-02-01T03:45:22.505Z,101783.31
2023-02-01T03:50:27.217Z,101778.41
2023-02-01T03:55:30.740Z,101788.22
2023-02-01T04:00:33.502Z,101794.72
2023-02-01T04:05:36.399Z,101804.53
2023-02-01T04:10:42.257Z,101783.31
2023-02-01T04:15:45.028Z,101804.06
2023-02-01T04:20:47.766Z,101803.38
2023-02-01T04:25:50.622Z,101801.78
2023-02-01T04:30:54.271Z,101805.56
2023-02-01T04:35:57.069Z,101806.44
2023-02-01T04:41:00.347Z,101820.06
2023-02-01T04:46:03.647Z,101814.47
2023-02-01T04:51:06.629Z,101821.81
2023-02-01T04:56:09.465Z,101822.94
2023-02-01T05:01:12.168Z,101824.97
2023-02-01T05:06:14.906Z,101835.44
2023-02-01T05:11:36.375Z,101837.91
2023-02-01T05:16:39.138Z,101841.47
2023-02-01T05:21:41.783Z,101836.09
2023-02-01T05:26:44.760Z,101839.00
2023-02-01T05:31:47.951Z,101842.78
2023-02-01T05:36:50.710Z,101832.28
2023-02-01T05:41:53.354Z,101833.38
2023-02-01T05:46:56.010Z,101778.50
2023-02-01T05:52:00.394Z,101836.88
2023-02-01T05:57:03.376Z,101835.50
2023-02-01T06:02:06.528Z,101833.88
2023-02-01T06:07:11.705Z,101835.00
2023-02-01T06:12:15.222Z,101834.75
2023-02-01T06:17:17.800Z,101844.09
2023-02-01T06:22:20.466Z,101844.47
2023-02-01T06:27:23.199Z,101852.47
2023-02-01T06:32:26.258Z,101853.75
2023-02-01T06:37:30.781Z,101819.78
2023-02-01T06:42:33.542Z,101839.78
2023-02-01T06:47:36.327Z,101838.16
2023-02-01T06:52:39.136Z,101824.66
2023-02-01T06:57:41.830Z,101821.91
2023-02-01T07:02:44.508Z,101811.75
2023-02-01T07:07:47.242Z,101806.72
2023-02-01T07:12:49.926Z,101786.66
2023-02-01T07:17:52.742Z,101826.72
2023-02-01T07:22:58.787Z,101829.72
2023-02-01T07:28:01.488Z,101821.59
2023-02-01T07:33:04.298Z,101829.31
2023-02-01T07:38:06.905Z,101825.34
2023-02-01T07:43:09.613Z,101834.88
2023-02-01T07:48:12.276Z,101827.13
2023-02-01T07:53:15.145Z,101829.47
2023-02-01T07:58:17.902Z,101805.09
2023-02-01T08:03:20.663Z,101830.53
2023-02-01T08:08:24.098Z,101835.59
2023-02-01T08:13:26.703Z,101815.06
2023-02-01T08:18:29.789Z,101828.75
2023-02-01T08:23:32.570Z,101831.13
2023-02-01T08:28:37.007Z,101830.56
2023-02-01T08:33:40.589Z,101833.16
2023-02-01T08:38:43.222Z,101846.22
2023-02-01T08:43:46.055Z,101843.44
2023-02-01T08:48:49.087Z,101814.41
2023-02-01T08:53:52.811Z,101841.91
2023-02-01T08:58:55.610Z,101837.69
2023-02-01T09:03:58.300Z,101840.91
2023-02-01T09:09:01.074Z,101842.00
2023-02-01T09:14:04.003Z,101844.16
2023-02-01T09:19:24.807Z,101842.59
2023-02-01T09:24:29.068Z,101837.66
2023-02-01T09:29:31.747Z,101851.28
2023-02-01T09:34:35.689Z,101855.13
2023-02-01T09:39:38.402Z,101845.25
2023-02-01T09:45:23.289Z,101857.81
2023-02-01T09:50:38.684Z,101822.66
2023-02-01T09:55:51.561Z,101859.47
2023-02-01T10:00:56.438Z,101861.16
2023-02-01T10:06:20.607Z,101871.94
2023-02-01T10:11:51.090Z,101867.06
2023-02-01T10:17:02.972Z,101872.44
2023-02-01T10:22:10.693Z,101867.44
2023-02-01T10:27:16.631Z,101867.41
2023-02-01T10:32:23.373Z,101873.03
2023-02-01T10:37:30.459Z,101880.16
2023-02-01T10:42:33.383Z,101858.06
2023-02-01T10:47:36.073Z,101883.59
2023-02-01T10:52:43.116Z,101885.75
2023-02-01T10:57:57.473Z,101886.00
2023-02-01T11:03:00.251Z,101887.66
2023-02-01T11:08:03.728Z,101856.34
2023-02-01T11:13:07.093Z,101888.31
2023-02-01T11:18:18.563Z,101893.97
2023-02-01T11:23:24.120Z,101859.00
2023-02-01T11:28:32.642Z,101859.75
2023-02-01T11:33:37.710Z,101886.09
2023-02-01T11:38:49.029Z,101898.88
2023-02-01T11:43:57.744Z,101898.94
2023-02-01T11:49:22.111Z,101895.63
2023-02-01T11:54:51.369Z,101900.09
2023-02-01T12:00:15.283Z,101900.16
2023-02-01T12:05:27.701Z,101893.94
2023-02-01T12:10:33.081Z,101890.41
2023-02-01T12:15:58.791Z,101883.28
2023-02-01T12:21:13.762Z,101905.19
2023-02-01T12:26:24.221Z,101915.03
2023-02-01T12:31:32.641Z,101911.44
2023-02-01T12:36:48.533Z,101925.56
2023-02-01T12:41:58.875Z,101919.63
2023-02-01T12:47:31.471Z,101915.81
2023-02-01T12:52:44.300Z,101920.09
2023-02-01T12:57:51.961Z,101918.31
2023-02-01T13:03:11.367Z,101916.75
2023-02-01T13:08:24.073Z,101917.03
2023-02-01T13:13:49.580Z,101914.31
2023-02-01T13:18:55.443Z,101909.84
2023-02-01T13:23:58.898Z,101913.47
2023-02-01T13:29:08.334Z,101931.78
2023-02-01T13:34:48.075Z,101925.75
2023-02-01T13:40:01.399Z,101925.97
2023-02-01T13:45:14.661Z,101923.75
2023-02-01T13:50:28.193Z,101933.13
2023-02-01T13:55:41.292Z,101926.44
2023-02-01T14:00:47.007Z,101947.44
2023-02-01T14:05:52.783Z,101955.50
2023-02-01T14:10:58.734Z,101959.53
2023-02-01T14:16:04.531Z,101956.19
2023-02-01T14:21:27.188Z,101946.59
2023-02-01T14:26:35.923Z,101957.31
2023-02-01T14:32:17.086Z,101954.19
2023-02-01T14:37:19.857Z,101949.50
2023-02-01T14:42:28.854Z,101957.09
2023-02-01T14:47:32.850Z,101953.09
2023-02-01T14:52:43.576Z,101947.97
2023-02-01T14:57:48.385Z,101948.41
2023-02-01T15:02:52.535Z,101946.63
2023-02-01T15:07:55.298Z,101950.63
2023-02-01T15:12:57.951Z,101938.13
2023-02-01T15:18:04.474Z,101935.94
2023-02-01T15:23:16.105Z,101937.22
2023-02-01T15:28:19.237Z,101924.53
2023-02-01T15:33:22.223Z,101897.31
2023-02-01T15:38:24.894Z,101925.22
2023-02-01T15:43:29.153Z,101926.34
2023-02-01T15:48:38.682Z,101921.44
2023-02-01T15:53:45.700Z,101935.91
2023-02-01T15:58:52.045Z,101936.13
2023-02-01T16:04:23.475Z,101937.69
2023-02-01T16:09:37.773Z,101909.09
2023-02-01T16:14:41.818Z,101936.97
2023-02-01T16:19:44.460Z,101935.88
2023-02-01T16:24:47.304Z,101918.84
2023-02-01T16:29:51.117Z,101949.03
2023-02-01T16:34:55.120Z,101942.03
2023-02-01T16:39:57.811Z,101947.63
2023-02-01T16:45:00.758Z,101942.91
2023-02-01T16:50:17.105Z,101945.13
2023-02-01T16:55:24.900Z,101952.69
2023-02-01T17:00:28.909Z,101949.97
2023-02-01T17:05:33.013Z,101959.78
2023-02-01T17:10:35.687Z,101952.16
2023-02-01T17:15:38.429Z,101932.91
2023-02-01T17:20:41.243Z,101948.06
2023-02-01T17:25:44.214Z,101950.00
2023-02-01T17:31:05.909Z,101944.84
2023-02-01T17:36:14.957Z,101953.72
2023-02-01T17:41:17.790Z,101925.97
2023-02-01T17:46:21.470Z,101952.47
2023-02-01T17:51:27.704Z,101960.44
2023-02-01T17:56:30.551Z,101953.47
2023-02-01T18:01:33.447Z,101944.00
2023-02-01T18:06:38.345Z,101962.94
2023-02-01T18:11:42.874Z,101953.56
2023-02-01T18:16:45.603Z,101953.53
2023-02-01T18:21:48.315Z,101951.03
2023-02-01T18:26:52.576Z,101965.03
2023-02-01T18:31:55.870Z,101940.59
2023-02-01T18:36:58.651Z,101967.63
2023-02-01T18:42:01.430Z,101973.81
2023-02-01T18:47:04.252Z,101970.88
2023-02-01T18:52:07.028Z,101971.72
2023-02-01T18:57:11.459Z,101975.72
2023-02-01T19:02:14.094Z,101975.50
2023-02-01T19:07:17.076Z,101953.28
2023-02-01T19:12:19.775Z,101959.06
2023-02-01T19:17:23.808Z,101970.00
2023-02-01T19:22:27.506Z,101970.34
2023-02-01T19:27:30.320Z,101964.03
2023-02-01T19:32:33.043Z,101953.66
2023-02-01T19:37:35.809Z,101962.34
2023-02-01T19:42:38.874Z,101969.84
2023-02-01T19:47:41.397Z,101970.88
2023-02-01T19:52:44.192Z,101967.66
2023-02-01T19:57:46.925Z,101941.84
2023-02-01T20:02:48.993Z,101965.47
2023-02-01T20:07:51.669Z,101971.91
2023-02-01T20:12:54.502Z,101979.47
2023-02-01T20:17:57.158Z,101971.84
2023-02-01T20:22:59.899Z,101980.66
2023-02-01T20:28:03.946Z,101978.47
2023-02-01T20:33:06.920Z,101975.47
2023-02-01T20:38:09.381Z,101985.03
2023-02-01T20:43:12.160Z,101959.25
2023-02-01T20:48:15.948Z,101972.53
2023-02-01T20:53:26.641Z,101964.81
2023-02-01T20:58:30.839Z,101969.81
2023-02-01T21:03:34.024Z,101967.28
2023-02-01T21:08:36.509Z,101971.09
2023-02-01T21:13:50.887Z,101969.88
2023-02-01T21:18:54.223Z,101965.53
2023-02-01T21:23:58.004Z,101956.84
2023-02-01T21:29:00.695Z,101961.91
2023-02-01T21:34:03.627Z,101941.53
2023-02-01T21:39:07.208Z,101961.81
2023-02-01T21:44:10.220Z,101969.06
2023-02-01T21:49:13.399Z,101954.88
2023-02-01T21:54:17.756Z,101961.56
2023-02-01T21:59:20.442Z,101956.59
2023-02-01T22:04:23.078Z,101976.75
2023-02-01T22:09:26.899Z,101969.41
2023-02-01T22:14:29.595Z,101979.09
2023-02-01T22:19:32.557Z,101969.34
2023-02-01T22:24:37.599Z,101960.81
2023-02-01T22:29:40.506Z,101960.75
2023-02-01T22:34:43.523Z,101961.97
2023-02-01T22:39:46.146Z,101970.19
2023-02-01T22:44:48.583Z,101971.34
2023-02-01T22:49:51.189Z,101969.31
2023-02-01T22:54:53.834Z,101963.47
2023-02-01T22:59:56.540Z,101945.06
2023-02-01T23:04:59.301Z,101950.84
2023-02-01T23:10:02.624Z,101950.75
2023-02-01T23:15:06.592Z,101960.25
2023-02-01T23:20:14.893Z,101957.06
2023-02-01T23:25:19.175Z,101923.19
2023-02-01T23:30:21.972Z,101953.44
2023-02-01T23:35:24.897Z,101958.66
2023-02-01T23:40:27.827Z,101958.59
2023-02-01T23:45:30.466Z,101946.25
2023-02-01T23:50:33.088Z,101945.81
2023-02-01T23:55:35.739Z,101952.81
